Wetterdaten: Woche 07.04.14 - 13.04.14 (KW15)
Datum Zeit Temp. A. Feuchte A. Luftdruck Regen Wind Richtung Sonnenschein ET UV Solar Taupunkt Windchill Windben
07.04.2014 00:00 6,2 C 90 % 1019,5 hPa 0,0 l/m 0,0 km/h (0 Bft) N 0,00 h 0,000 mm 0,0 UV-I 0 W/m 4,7 C 6,2 C 0,1 km/h (0 Bft)
07.04.2014 01:00 5,4 C 91 % 1019,8 hPa 0,0 l/m 0,0 km/h (0 Bft) N 0,00 h 0,000 mm 0,0 UV-I 0 W/m 4,1 C 5,4 C 0,0 km/h (0 Bft)
07.04.2014 02:00 5,4 C 91 % 1019,6 hPa 0,0 l/m 0,0 km/h (0 Bft) N 0,00 h 0,000 mm 0,0 UV-I 0 W/m 4,1 C 5,4 C 0,0 km/h (0 Bft)
07.04.2014 03:00 5,2 C 92 % 1019,5 hPa 0,0 l/m 0,0 km/h (0 Bft) N 0,00 h 0,000 mm 0,0 UV-I 0 W/m 4,0 C 5,2 C 0,0 km/h (0 Bft)
07.04.2014 04:00 5,8 C 91 % 1019,3 hPa 0,0 l/m 0,3 km/h (0 Bft) SO 0,00 h 0,000 mm 0,0 UV-I 0 W/m 4,5 C 5,8 C 0,9 km/h (0 Bft)
07.04.2014 05:00 5,3 C 92 % 1019,1 hPa 0,0 l/m 0,0 km/h (0 Bft) N 0,00 h 0,000 mm 0,0 UV-I 0 W/m 4,2 C 5,3 C 0,1 km/h (0 Bft)
07.04.2014 06:00 4,7 C 94 % 1019,4 hPa 0,0 l/m 0,0 km/h (0 Bft) N 0,00 h 0,000 mm 0,0 UV-I 9 W/m 3,7 C 4,7 C 0,3 km/h (0 Bft)
07.04.2014 07:00 4,9 C 93 % 1019,8 hPa 0,0 l/m 0,3 km/h (0 Bft) SO 0,37 h 0,000 mm 0,0 UV-I 43 W/m 3,8 C 4,9 C 0,5 km/h (0 Bft)
07.04.2014 08:00 7,6 C 88 % 1020,0 hPa 0,0 l/m 0,5 km/h (0 Bft) SO 1,00 h 0,025 mm 0,7 UV-I 228 W/m 5,8 C 7,6 C 1,6 km/h (1 Bft)
07.04.2014 09:00 11,5 C 76 % 1019,7 hPa 0,0 l/m 1,0 km/h (0 Bft) SO 1,00 h 0,102 mm 1,6 UV-I 414 W/m 7,5 C 11,5 C 2,8 km/h (1 Bft)
07.04.2014 10:00 15,3 C 64 % 1019,6 hPa 0,0 l/m 3,1 km/h (1 Bft) W-SW 1,00 h 0,203 mm 2,7 UV-I 587 W/m 8,4 C 15,3 C 5,9 km/h (2 Bft)
07.04.2014 11:00 17,0 C 56 % 1019,3 hPa 0,0 l/m 7,3 km/h (2 Bft) S 1,00 h 0,330 mm 3,7 UV-I 649 W/m 8,1 C 16,2 C 11,3 km/h (2 Bft)
07.04.2014 12:00 17,8 C 53 % 1018,9 hPa 0,0 l/m 7,5 km/h (2 Bft) S 1,00 h 0,406 mm 4,1 UV-I 671 W/m 8,2 C 17,1 C 11,6 km/h (2 Bft)
07.04.2014 13:00 18,9 C 51 % 1018,3 hPa 0,0 l/m 7,4 km/h (2 Bft) S 1,00 h 0,406 mm 4,6 UV-I 738 W/m 8,5 C 18,1 C 11,9 km/h (2 Bft)
07.04.2014 14:00 19,7 C 50 % 1017,5 hPa 0,0 l/m 6,0 km/h (2 Bft) S 1,00 h 0,458 mm 4,0 UV-I 668 W/m 9,1 C 19,3 C 9,8 km/h (2 Bft)
07.04.2014 15:00 19,9 C 48 % 1016,7 hPa 0,0 l/m 7,9 km/h (2 Bft) S 1,00 h 0,432 mm 2,9 UV-I 523 W/m 8,5 C 19,1 C 12,0 km/h (2 Bft)
07.04.2014 16:00 20,0 C 47 % 1016,0 hPa 0,0 l/m 8,2 km/h (2 Bft) S-SO 1,00 h 0,356 mm 2,0 UV-I 446 W/m 8,3 C 19,1 C 12,6 km/h (3 Bft)
07.04.2014 17:00 19,4 C 49 % 1015,5 hPa 0,0 l/m 7,9 km/h (2 Bft) S 1,00 h 0,330 mm 1,0 UV-I 250 W/m 8,3 C 18,7 C 11,5 km/h (2 Bft)
07.04.2014 18:00 18,5 C 50 % 1014,9 hPa 0,0 l/m 6,1 km/h (2 Bft) S 0,87 h 0,203 mm 0,5 UV-I 82 W/m 7,8 C 18,2 C 8,9 km/h (2 Bft)
07.04.2014 19:00 17,2 C 54 % 1014,8 hPa 0,0 l/m 3,1 km/h (1 Bft) S 0,00 h 0,102 mm 0,0 UV-I 21 W/m 7,9 C 17,2 C 4,5 km/h (1 Bft)
07.04.2014 20:00 15,0 C 66 % 1014,8 hPa 0,0 l/m 1,4 km/h (1 Bft) O-SO 0,00 h 0,025 mm 0,0 UV-I 0 W/m 8,7 C 15,0 C 3,0 km/h (1 Bft)
07.04.2014 21:00 14,0 C 70 % 1014,8 hPa 0,0 l/m 3,2 km/h (1 Bft) O-SO 0,00 h 0,026 mm 0,0 UV-I 0 W/m 8,6 C 14,0 C 5,3 km/h (1 Bft)
07.04.2014 22:00 13,4 C 72 % 1014,4 hPa 0,0 l/m 2,5 km/h (1 Bft) SO 0,00 h 0,025 mm 0,0 UV-I 0 W/m 8,5 C 13,4 C 4,3 km/h (1 Bft)
07.04.2014 23:00 13,5 C 72 % 1014,1 hPa 0,0 l/m 1,1 km/h (0 Bft) SO 0,00 h 0,025 mm 0,0 UV-I 0 W/m 8,6 C 13,5 C 2,4 km/h (1 Bft)
08.04.2014 00:00 12,1 C 78 % 1013,7 hPa 0,0 l/m 0,3 km/h (0 Bft) O-SO 0,00 h 0,025 mm 0,0 UV-I 0 W/m 8,4 C 12,1 C 0,7 km/h (0 Bft)
08.04.2014 01:00 11,8 C 79 % 1013,3 hPa 0,0 l/m 1,0 km/h (0 Bft) S-SW 0,00 h 0,025 mm 0,0 UV-I 0 W/m 8,2 C 11,8 C 2,6 km/h (1 Bft)
08.04.2014 02:00 13,2 C 71 % 1012,8 hPa 0,0 l/m 6,2 km/h (2 Bft) S 0,00 h 0,025 mm 0,0 UV-I 0 W/m 8,0 C 12,8 C 9,8 km/h (2 Bft)
08.04.2014 03:00 13,1 C 70 % 1012,5 hPa 0,0 l/m 3,4 km/h (1 Bft) S-SW 0,00 h 0,025 mm 0,0 UV-I 0 W/m 7,7 C 13,0 C 6,2 km/h (2 Bft)
08.04.2014 04:00 12,0 C 75 % 1012,2 hPa 0,0 l/m 1,1 km/h (0 Bft) S-SO 0,00 h 0,000 mm 0,0 UV-I 0 W/m 7,6 C 12,0 C 2,3 km/h (1 Bft)
08.04.2014 05:00 10,5 C 82 % 1012,2 hPa 0,0 l/m 0,3 km/h (0 Bft) N-NO 0,00 h 0,025 mm 0,0 UV-I 0 W/m 7,5 C 10,5 C 0,9 km/h (0 Bft)
08.04.2014 06:00 11,2 C 80 % 1012,9 hPa 0,0 l/m 3,9 km/h (1 Bft) SW 0,00 h 0,025 mm 0,0 UV-I 0 W/m 7,9 C 11,1 C 6,6 km/h (2 Bft)
08.04.2014 07:00 11,8 C 80 % 1012,3 hPa 0,0 l/m 4,5 km/h (1 Bft) S 0,13 h 0,000 mm 0,0 UV-I 31 W/m 8,4 C 11,7 C 6,7 km/h (2 Bft)
08.04.2014 08:00 12,6 C 79 % 1012,4 hPa 0,0 l/m 5,4 km/h (1 Bft) S 0,98 h 0,025 mm 0,6 UV-I 107 W/m 9,1 C 12,2 C 8,9 km/h (2 Bft)
08.04.2014 09:00 13,6 C 78 % 1012,6 hPa 0,0 l/m 8,7 km/h (2 Bft) SW 1,00 h 0,076 mm 1,1 UV-I 201 W/m 9,8 C 12,2 C 13,9 km/h (3 Bft)
08.04.2014 10:00 15,2 C 72 % 1012,7 hPa 0,0 l/m 11,5 km/h (2 Bft) W-SW 1,00 h 0,127 mm 1,5 UV-I 248 W/m 10,1 C 13,0 C 17,9 km/h (3 Bft)
08.04.2014 11:00 14,8 C 67 % 1012,9 hPa 0,0 l/m 17,2 km/h (3 Bft) W-SW 1,00 h 0,178 mm 1,2 UV-I 159 W/m 8,7 C 10,4 C 27,2 km/h (4 Bft)
08.04.2014 12:00 13,4 C 74 % 1013,5 hPa 0,0 l/m 17,4 km/h (3 Bft) W-SW 1,00 h 0,152 mm 1,8 UV-I 244 W/m 8,8 C 8,6 C 27,0 km/h (4 Bft)
08.04.2014 13:00 13,5 C 64 % 1013,7 hPa 0,0 l/m 17,8 km/h (3 Bft) W-SW 1,00 h 0,178 mm 2,7 UV-I 379 W/m 6,9 C 8,6 C 26,5 km/h (4 Bft)
08.04.2014 14:00 14,7 C 56 % 1013,4 hPa 0,0 l/m 16,1 km/h (3 Bft) W-SW 1,00 h 0,279 mm 3,0 UV-I 461 W/m 5,9 C 10,6 C 24,9 km/h (4 Bft)
08.04.2014 15:00 14,7 C 44 % 1013,4 hPa 0,0 l/m 18,9 km/h (3 Bft) W 1,00 h 0,330 mm 1,9 UV-I 283 W/m 2,5 C 9,7 C 28,3 km/h (4 Bft)
08.04.2014 16:00 14,1 C 46 % 1013,5 hPa 0,0 l/m 16,5 km/h (3 Bft) W-SW 1,00 h 0,279 mm 1,5 UV-I 289 W/m 2,7 C 9,8 C 25,1 km/h (4 Bft)
08.04.2014 17:00 13,4 C 44 % 1014,1 hPa 0,0 l/m 18,9 km/h (3 Bft) W 1,00 h 0,254 mm 0,9 UV-I 175 W/m 1,5 C 8,2 C 28,6 km/h (4 Bft)
08.04.2014 18:00 12,1 C 44 % 1014,8 hPa 0,0 l/m 17,4 km/h (3 Bft) W-NW 0,62 h 0,229 mm 0,6 UV-I 61 W/m 0,3 C 6,9 C 26,9 km/h (4 Bft)
08.04.2014 19:00 11,0 C 46 % 1015,7 hPa 0,0 l/m 15,1 km/h (3 Bft) W 0,00 h 0,152 mm 0,0 UV-I 12 W/m -0,0 C 6,5 C 23,5 km/h (4 Bft)
08.04.2014 20:00 10,1 C 51 % 1016,6 hPa 0,0 l/m 11,1 km/h (2 Bft) W 0,00 h 0,102 mm 0,0 UV-I 0 W/m 0,3 C 7,2 C 17,4 km/h (3 Bft)
08.04.2014 21:00 9,5 C 55 % 1017,4 hPa 0,0 l/m 14,2 km/h (3 Bft) W-NW 0,00 h 0,051 mm 0,0 UV-I 0 W/m 0,9 C 5,2 C 21,1 km/h (4 Bft)
08.04.2014 22:00 8,7 C 55 % 1018,2 hPa 0,0 l/m 13,9 km/h (3 Bft) W-NW 0,00 h 0,076 mm 0,0 UV-I 0 W/m 0,1 C 4,3 C 21,4 km/h (4 Bft)
08.04.2014 23:00 8,2 C 54 % 1018,7 hPa 0,0 l/m 12,1 km/h (2 Bft) W-NW 0,00 h 0,076 mm 0,0 UV-I 0 W/m -0,6 C 4,6 C 18,9 km/h (3 Bft)
09.04.2014 00:00 7,7 C 55 % 1019,1 hPa 0,0 l/m 11,2 km/h (2 Bft) W-NW 0,00 h 0,076 mm 0,0 UV-I 0 W/m -0,7 C 4,5 C 16,9 km/h (3 Bft)
09.04.2014 01:00 5,5 C 73 % 1020,0 hPa 0,0 l/m 13,6 km/h (3 Bft) W 0,00 h 0,051 mm 0,0 UV-I 0 W/m 1,0 C 0,9 C 21,4 km/h (4 Bft)
09.04.2014 02:00 3,7 C 82 % 1020,1 hPa 0,0 l/m 5,7 km/h (1 Bft) W 0,00 h 0,051 mm 0,0 UV-I 0 W/m 0,8 C 3,4 C 8,5 km/h (2 Bft)
09.04.2014 03:00 3,0 C 85 % 1020,2 hPa 0,0 l/m 4,3 km/h (1 Bft) W 0,00 h 0,025 mm 0,0 UV-I 0 W/m 0,7 C 2,8 C 7,2 km/h (2 Bft)
09.04.2014 04:00 3,3 C 83 % 1020,4 hPa 0,0 l/m 8,0 km/h (2 Bft) W 0,00 h 0,000 mm 0,0 UV-I 0 W/m 0,7 C 1,7 C 12,2 km/h (3 Bft)
09.04.2014 05:00 2,9 C 84 % 1020,7 hPa 0,0 l/m 6,6 km/h (2 Bft) W 0,00 h 0,025 mm 0,0 UV-I 0 W/m 0,5 C 2,3 C 10,4 km/h (2 Bft)
09.04.2014 06:00 3,0 C 84 % 1020,9 hPa 0,0 l/m 8,3 km/h (2 Bft) W 0,00 h 0,025 mm 0,0 UV-I 5 W/m 0,6 C 1,3 C 12,7 km/h (3 Bft)
09.04.2014 07:00 3,5 C 84 % 1021,5 hPa 0,0 l/m 8,9 km/h (2 Bft) W 0,00 h 0,000 mm 0,0 UV-I 14 W/m 1,0 C 1,3 C 13,4 km/h (3 Bft)
09.04.2014 08:00 4,2 C 80 % 1022,1 hPa 0,0 l/m 8,8 km/h (2 Bft) W 0,83 h 0,025 mm 0,6 UV-I 65 W/m 1,1 C 2,2 C 13,9 km/h (3 Bft)
09.04.2014 09:00 5,1 C 75 % 1022,6 hPa 0,0 l/m 10,9 km/h (2 Bft) W-NW 1,00 h 0,051 mm 1,0 UV-I 128 W/m 1,1 C 1,7 C 16,8 km/h (3 Bft)
09.04.2014 10:00 5,7 C 69 % 1023,0 hPa 0,0 l/m 11,8 km/h (2 Bft) W-NW 1,00 h 0,076 mm 1,3 UV-I 148 W/m 0,6 C 1,9 C 17,8 km/h (3 Bft)
09.04.2014 11:00 7,4 C 60 % 1023,3 hPa 0,0 l/m 13,0 km/h (3 Bft) W-NW 1,00 h 0,102 mm 2,6 UV-I 340 W/m 0,2 C 3,1 C 19,7 km/h (3 Bft)
09.04.2014 12:00 8,8 C 53 % 1023,2 hPa 0,2 l/m 15,5 km/h (3 Bft) W-NW 1,00 h 0,229 mm 3,4 UV-I 513 W/m -0,1 C 3,6 C 23,7 km/h (4 Bft)
09.04.2014 13:00 8,8 C 53 % 1023,1 hPa 0,0 l/m 13,2 km/h (3 Bft) W 1,00 h 0,305 mm 2,6 UV-I 356 W/m -0,2 C 4,7 C 19,5 km/h (3 Bft)
09.04.2014 14:00 8,7 C 55 % 1022,7 hPa 0,2 l/m 12,0 km/h (2 Bft) W 1,00 h 0,229 mm 1,7 UV-I 222 W/m 0,2 C 5,2 C 18,3 km/h (3 Bft)
09.04.2014 15:00 9,2 C 51 % 1022,2 hPa 0,0 l/m 13,6 km/h (3 Bft) W-NW 1,00 h 0,178 mm 1,3 UV-I 190 W/m -0,5 C 5,0 C 20,3 km/h (4 Bft)
09.04.2014 16:00 8,9 C 52 % 1022,1 hPa 0,0 l/m 12,3 km/h (3 Bft) W 1,00 h 0,152 mm 0,7 UV-I 97 W/m -0,3 C 5,2 C 18,3 km/h (3 Bft)
09.04.2014 17:00 8,8 C 53 % 1021,9 hPa 0,0 l/m 13,3 km/h (3 Bft) W-NW 0,65 h 0,102 mm 0,5 UV-I 62 W/m -0,2 C 4,7 C 19,8 km/h (3 Bft)
09.04.2014 18:00 8,7 C 55 % 1021,6 hPa 0,0 l/m 11,0 km/h (2 Bft) W 0,50 h 0,102 mm 0,5 UV-I 52 W/m 0,3 C 5,8 C 17,4 km/h (3 Bft)
09.04.2014 19:00 8,5 C 57 % 1021,5 hPa 0,0 l/m 10,0 km/h (2 Bft) W 0,00 h 0,076 mm 0,0 UV-I 26 W/m 0,6 C 6,0 C 15,1 km/h (3 Bft)
09.04.2014 20:00 8,0 C 60 % 1021,8 hPa 0,0 l/m 8,7 km/h (2 Bft) W 0,00 h 0,051 mm 0,0 UV-I 0 W/m 0,6 C 6,3 C 13,2 km/h (3 Bft)
09.04.2014 21:00 7,2 C 64 % 1022,0 hPa 0,0 l/m 7,3 km/h (2 Bft) W-SW 0,00 h 0,051 mm 0,0 UV-I 0 W/m 0,9 C 6,2 C 11,1 km/h (2 Bft)
09.04.2014 22:00 7,0 C 66 % 1021,8 hPa 0,0 l/m 8,9 km/h (2 Bft) W 0,00 h 0,051 mm 0,0 UV-I 0 W/m 1,0 C 5,1 C 13,6 km/h (3 Bft)
09.04.2014 23:00 6,2 C 74 % 1021,6 hPa 0,0 l/m 6,2 km/h (2 Bft) W 0,00 h 0,051 mm 0,0 UV-I 0 W/m 2,0 C 5,7 C 10,1 km/h (2 Bft)
10.04.2014 00:00 6,0 C 78 % 1021,1 hPa 0,0 l/m 5,2 km/h (1 Bft) W 0,00 h 0,025 mm 0,0 UV-I 0 W/m 2,5 C 5,9 C 8,8 km/h (2 Bft)
10.04.2014 01:00 6,2 C 79 % 1020,5 hPa 0,0 l/m 7,3 km/h (2 Bft) W 0,00 h 0,025 mm 0,0 UV-I 0 W/m 2,9 C 5,1 C 11,5 km/h (2 Bft)
10.04.2014 02:00 6,4 C 79 % 1020,1 hPa 0,0 l/m 7,2 km/h (2 Bft) W 0,00 h 0,025 mm 0,0 UV-I 0 W/m 3,1 C 5,3 C 11,0 km/h (2 Bft)
10.04.2014 03:00 6,2 C 84 % 1019,8 hPa 0,2 l/m 2,8 km/h (1 Bft) W 0,00 h 0,025 mm 0,0 UV-I 0 W/m 3,8 C 6,2 C 4,8 km/h (1 Bft)
10.04.2014 04:00 6,2 C 86 % 1019,2 hPa 0,0 l/m 8,2 km/h (2 Bft) W 0,00 h 0,000 mm 0,0 UV-I 0 W/m 4,1 C 4,7 C 12,3 km/h (3 Bft)
10.04.2014 05:00 6,1 C 89 % 1019,0 hPa 0,0 l/m 7,7 km/h (2 Bft) W 0,00 h 0,025 mm 0,0 UV-I 0 W/m 4,4 C 4,9 C 11,8 km/h (2 Bft)
10.04.2014 06:00 6,3 C 89 % 1019,0 hPa 0,0 l/m 8,8 km/h (2 Bft) W-NW 0,00 h 0,000 mm 0,0 UV-I 6 W/m 4,7 C 4,4 C 13,7 km/h (3 Bft)
10.04.2014 07:00 6,8 C 86 % 1019,1 hPa 0,0 l/m 9,5 km/h (2 Bft) W-NW 0,00 h 0,000 mm 0,0 UV-I 29 W/m 4,7 C 4,4 C 14,7 km/h (3 Bft)
10.04.2014 08:00 7,4 C 85 % 1019,4 hPa 0,0 l/m 10,2 km/h (2 Bft) NW 0,98 h 0,025 mm 0,6 UV-I 87 W/m 5,0 C 4,7 C 16,0 km/h (3 Bft)
10.04.2014 09:00 8,5 C 78 % 1019,7 hPa 0,0 l/m 12,3 km/h (3 Bft) NW 1,00 h 0,051 mm 1,0 UV-I 149 W/m 4,8 C 4,8 C 18,8 km/h (3 Bft)
10.04.2014 10:00 9,3 C 73 % 1019,9 hPa 0,0 l/m 12,0 km/h (2 Bft) N-NW 1,00 h 0,102 mm 1,8 UV-I 295 W/m 4,6 C 5,9 C 18,8 km/h (3 Bft)
10.04.2014 11:00 9,4 C 69 % 1020,2 hPa 0,0 l/m 10,4 km/h (2 Bft) N-NW 1,00 h 0,178 mm 1,5 UV-I 195 W/m 4,0 C 6,9 C 16,3 km/h (3 Bft)
10.04.2014 12:00 9,1 C 73 % 1020,4 hPa 0,0 l/m 11,0 km/h (2 Bft) N 1,00 h 0,127 mm 1,2 UV-I 142 W/m 4,4 C 6,1 C 15,7 km/h (3 Bft)
10.04.2014 13:00 10,0 C 68 % 1020,3 hPa 0,0 l/m 9,3 km/h (2 Bft) NW 1,00 h 0,102 mm 2,2 UV-I 289 W/m 4,4 C 8,1 C 14,2 km/h (3 Bft)
10.04.2014 14:00 11,7 C 59 % 1019,9 hPa 0,0 l/m 12,2 km/h (2 Bft) N-NW 1,00 h 0,152 mm 2,8 UV-I 483 W/m 3,9 C 8,5 C 18,8 km/h (3 Bft)
10.04.2014 15:00 11,7 C 60 % 1019,5 hPa 0,0 l/m 9,8 km/h (2 Bft) N 0,92 h 0,279 mm 1,3 UV-I 161 W/m 4,1 C 9,7 C 15,1 km/h (3 Bft)
10.04.2014 16:00 10,9 C 64 % 1019,5 hPa 0,0 l/m 10,0 km/h (2 Bft) N-NW 0,83 h 0,127 mm 0,8 UV-I 87 W/m 4,4 C 8,6 C 15,0 km/h (3 Bft)
10.04.2014 17:00 10,9 C 66 % 1019,4 hPa 0,0 l/m 9,3 km/h (2 Bft) N-NW 0,93 h 0,076 mm 0,8 UV-I 111 W/m 4,9 C 9,1 C 14,5 km/h (3 Bft)
10.04.2014 18:00 10,6 C 71 % 1019,5 hPa 0,0 l/m 6,7 km/h (2 Bft) N-NW 0,83 h 0,076 mm 0,5 UV-I 70 W/m 5,5 C 10,0 C 10,4 km/h (2 Bft)
10.04.2014 19:00 9,6 C 77 % 1019,9 hPa 0,0 l/m 8,2 km/h (2 Bft) N-NW 0,00 h 0,051 mm 0,0 UV-I 17 W/m 5,7 C 8,3 C 12,5 km/h (3 Bft)
10.04.2014 20:00 9,0 C 82 % 1020,3 hPa 0,0 l/m 4,3 km/h (1 Bft) N-NW 0,00 h 0,025 mm 0,0 UV-I 0 W/m 6,1 C 8,8 C 7,0 km/h (2 Bft)
10.04.2014 21:00 8,1 C 87 % 1020,7 hPa 0,0 l/m 4,2 km/h (1 Bft) N-NO 0,00 h 0,000 mm 0,0 UV-I 0 W/m 6,1 C 8,1 C 7,1 km/h (2 Bft)
10.04.2014 22:00 7,4 C 91 % 1020,8 hPa 0,0 l/m 0,2 km/h (0 Bft) N 0,00 h 0,000 mm 0,0 UV-I 0 W/m 6,1 C 7,4 C 1,0 km/h (0 Bft)
10.04.2014 23:00 7,3 C 91 % 1020,8 hPa 0,2 l/m 0,8 km/h (0 Bft) N 0,00 h 0,000 mm 0,0 UV-I 0 W/m 6,0 C 7,3 C 1,6 km/h (1 Bft)
11.04.2014 00:00 7,1 C 92 % 1020,7 hPa 0,2 l/m 1,3 km/h (1 Bft) N 0,00 h 0,000 mm 0,0 UV-I 0 W/m 6,0 C 7,1 C 2,6 km/h (1 Bft)
11.04.2014 01:00 6,4 C 89 % 1020,6 hPa 0,0 l/m 2,5 km/h (1 Bft) SO 0,00 h 0,000 mm 0,0 UV-I 0 W/m 4,7 C 6,4 C 4,8 km/h (1 Bft)
11.04.2014 02:00 5,9 C 87 % 1020,2 hPa 0,0 l/m 0,8 km/h (0 Bft) O 0,00 h 0,000 mm 0,0 UV-I 0 W/m 4,0 C 5,9 C 2,2 km/h (1 Bft)
11.04.2014 03:00 5,5 C 88 % 1019,7 hPa 0,0 l/m 0,2 km/h (0 Bft) O-NO 0,00 h 0,000 mm 0,0 UV-I 0 W/m 3,6 C 5,5 C 1,1 km/h (0 Bft)
11.04.2014 04:00 5,3 C 87 % 1019,3 hPa 0,0 l/m 0,7 km/h (0 Bft) O-SO 0,00 h 0,000 mm 0,0 UV-I 0 W/m 3,3 C 5,3 C 2,0 km/h (1 Bft)
11.04.2014 05:00 5,0 C 88 % 1019,1 hPa 0,0 l/m 1,5 km/h (1 Bft) O-NO 0,00 h 0,000 mm 0,0 UV-I 0 W/m 3,1 C 5,0 C 3,0 km/h (1 Bft)
11.04.2014 06:00 4,9 C 87 % 1019,0 hPa 0,0 l/m 1,0 km/h (0 Bft) O-NO 0,00 h 0,000 mm 0,0 UV-I 6 W/m 3,0 C 4,9 C 2,3 km/h (1 Bft)
11.04.2014 07:00 5,4 C 87 % 1019,3 hPa 0,0 l/m 0,7 km/h (0 Bft) N 0,30 h 0,000 mm 0,0 UV-I 36 W/m 3,4 C 5,4 C 1,4 km/h (1 Bft)
11.04.2014 08:00 6,4 C 84 % 1019,5 hPa 0,0 l/m 0,2 km/h (0 Bft) N 1,00 h 0,025 mm 0,7 UV-I 103 W/m 3,8 C 6,4 C 0,8 km/h (0 Bft)
11.04.2014 09:00 7,4 C 80 % 1019,8 hPa 0,0 l/m 0,7 km/h (0 Bft) S-SO 1,00 h 0,051 mm 0,9 UV-I 172 W/m 4,2 C 7,4 C 2,2 km/h (1 Bft)
11.04.2014 10:00 7,9 C 79 % 1019,9 hPa 0,0 l/m 1,1 km/h (1 Bft) S-SO 1,00 h 0,076 mm 0,9 UV-I 139 W/m 4,5 C 7,9 C 2,3 km/h (1 Bft)
11.04.2014 11:00 8,9 C 78 % 1019,7 hPa 0,0 l/m 1,7 km/h (1 Bft) W 1,00 h 0,076 mm 1,7 UV-I 241 W/m 5,2 C 8,9 C 3,3 km/h (1 Bft)
11.04.2014 12:00 9,8 C 75 % 1019,4 hPa 0,0 l/m 3,0 km/h (1 Bft) W-NW 1,00 h 0,102 mm 2,3 UV-I 301 W/m 5,7 C 9,8 C 5,0 km/h (1 Bft)
11.04.2014 13:00 10,8 C 70 % 1018,8 hPa 0,0 l/m 2,1 km/h (1 Bft) SW 1,00 h 0,153 mm 3,1 UV-I 407 W/m 5,6 C 10,8 C 4,0 km/h (1 Bft)
11.04.2014 14:00 12,0 C 63 % 1018,5 hPa 0,0 l/m 3,4 km/h (1 Bft) W-NW 1,00 h 0,203 mm 2,8 UV-I 382 W/m 5,2 C 11,9 C 6,1 km/h (2 Bft)
11.04.2014 15:00 11,7 C 63 % 1018,3 hPa 0,0 l/m 4,4 km/h (1 Bft) W 1,00 h 0,203 mm 1,4 UV-I 191 W/m 5,0 C 11,6 C 7,4 km/h (2 Bft)
11.04.2014 16:00 11,6 C 65 % 1017,9 hPa 0,0 l/m 2,7 km/h (1 Bft) N-NO 1,00 h 0,102 mm 0,9 UV-I 150 W/m 5,2 C 11,6 C 4,8 km/h (1 Bft)
11.04.2014 17:00 11,4 C 67 % 1017,6 hPa 0,0 l/m 1,5 km/h (1 Bft) NO 1,00 h 0,076 mm 0,6 UV-I 88 W/m 5,5 C 11,4 C 3,5 km/h (1 Bft)
11.04.2014 18:00 11,2 C 67 % 1017,5 hPa 0,0 l/m 2,3 km/h (1 Bft) SO 0,52 h 0,051 mm 0,6 UV-I 110 W/m 5,4 C 11,2 C 4,3 km/h (1 Bft)
11.04.2014 19:00 10,4 C 71 % 1017,6 hPa 0,0 l/m 1,7 km/h (1 Bft) S 0,00 h 0,076 mm 0,0 UV-I 26 W/m 5,4 C 10,4 C 3,2 km/h (1 Bft)
11.04.2014 20:00 8,5 C 80 % 1017,8 hPa 0,0 l/m 1,9 km/h (1 Bft) O 0,00 h 0,025 mm 0,0 UV-I 0 W/m 5,2 C 8,5 C 3,3 km/h (1 Bft)
11.04.2014 21:00 6,7 C 87 % 1018,3 hPa 0,0 l/m 0,1 km/h (0 Bft) O-NO 0,00 h 0,000 mm 0,0 UV-I 0 W/m 4,7 C 6,7 C 0,2 km/h (0 Bft)
11.04.2014 22:00 5,7 C 90 % 1018,5 hPa 0,0 l/m 0,2 km/h (0 Bft) O-NO 0,00 h 0,000 mm 0,0 UV-I 0 W/m 4,2 C 5,7 C 0,6 km/h (0 Bft)
11.04.2014 23:00 4,8 C 92 % 1018,6 hPa 0,0 l/m 0,1 km/h (0 Bft) O 0,00 h 0,000 mm 0,0 UV-I 0 W/m 3,5 C 4,8 C 0,5 km/h (0 Bft)
12.04.2014 00:00 4,3 C 93 % 1018,4 hPa 0,0 l/m 0,3 km/h (0 Bft) O 0,00 h 0,000 mm 0,0 UV-I 0 W/m 3,2 C 4,3 C 0,7 km/h (0 Bft)
12.04.2014 01:00 4,1 C 92 % 1018,2 hPa 0,0 l/m 0,2 km/h (0 Bft) O 0,00 h 0,000 mm 0,0 UV-I 0 W/m 3,0 C 4,1 C 0,6 km/h (0 Bft)
12.04.2014 02:00 4,3 C 92 % 1017,9 hPa 0,0 l/m 0,0 km/h (0 Bft) N 0,00 h 0,000 mm 0,0 UV-I 0 W/m 3,1 C 4,3 C 0,1 km/h (0 Bft)
12.04.2014 03:00 4,5 C 93 % 1017,6 hPa 0,0 l/m 0,1 km/h (0 Bft) O 0,00 h 0,000 mm 0,0 UV-I 0 W/m 3,4 C 4,5 C 0,6 km/h (0 Bft)
12.04.2014 04:00 4,6 C 92 % 1017,4 hPa 0,0 l/m 0,0 km/h (0 Bft) N 0,00 h 0,000 mm 0,0 UV-I 0 W/m 3,5 C 4,6 C 0,4 km/h (0 Bft)
12.04.2014 05:00 4,5 C 94 % 1017,3 hPa 0,0 l/m 0,3 km/h (0 Bft) O-SO 0,00 h 0,000 mm 0,0 UV-I 0 W/m 3,6 C 4,5 C 0,8 km/h (0 Bft)
12.04.2014 06:00 5,0 C 93 % 1017,4 hPa 0,0 l/m 1,4 km/h (1 Bft) O-NO 0,00 h 0,000 mm 0,0 UV-I 13 W/m 3,9 C 5,0 C 2,7 km/h (1 Bft)
12.04.2014 07:00 5,7 C 92 % 1017,8 hPa 0,0 l/m 0,1 km/h (0 Bft) N 0,00 h 0,000 mm 0,0 UV-I 21 W/m 4,5 C 5,7 C 0,5 km/h (0 Bft)
12.04.2014 08:00 6,1 C 93 % 1018,2 hPa 0,0 l/m 1,6 km/h (1 Bft) N 0,38 h 0,000 mm 0,0 UV-I 47 W/m 5,1 C 6,1 C 2,7 km/h (1 Bft)
12.04.2014 09:00 7,7 C 92 % 1018,2 hPa 0,0 l/m 0,8 km/h (0 Bft) O-NO 1,00 h 0,025 mm 1,1 UV-I 176 W/m 6,5 C 7,7 C 2,2 km/h (1 Bft)
12.04.2014 10:00 11,1 C 79 % 1018,2 hPa 0,0 l/m 2,1 km/h (1 Bft) SO 1,00 h 0,076 mm 2,5 UV-I 545 W/m 7,5 C 11,1 C 4,1 km/h (1 Bft)
12.04.2014 11:00 12,8 C 66 % 1017,9 hPa 0,0 l/m 2,3 km/h (1 Bft) O-SO 1,00 h 0,254 mm 3,0 UV-I 531 W/m 6,6 C 12,8 C 4,5 km/h (1 Bft)
12.04.2014 12:00 13,3 C 63 % 1017,5 hPa 0,0 l/m 3,1 km/h (1 Bft) W-NW 1,00 h 0,254 mm 2,3 UV-I 325 W/m 6,3 C 13,3 C 5,3 km/h (1 Bft)
12.04.2014 13:00 13,4 C 62 % 1017,2 hPa 0,0 l/m 5,0 km/h (1 Bft) NW 1,00 h 0,178 mm 2,1 UV-I 269 W/m 6,4 C 13,3 C 7,9 km/h (2 Bft)
12.04.2014 14:00 13,3 C 67 % 1016,9 hPa 0,0 l/m 7,0 km/h (2 Bft) N 1,00 h 0,153 mm 2,3 UV-I 326 W/m 7,4 C 12,6 C 10,4 km/h (2 Bft)
12.04.2014 15:00 14,5 C 57 % 1016,2 hPa 0,0 l/m 2,5 km/h (1 Bft) NO 1,00 h 0,203 mm 2,7 UV-I 465 W/m 6,2 C 14,5 C 4,6 km/h (1 Bft)
12.04.2014 16:00 14,6 C 55 % 1015,8 hPa 0,0 l/m 2,7 km/h (1 Bft) S 1,00 h 0,254 mm 1,8 UV-I 361 W/m 5,7 C 14,6 C 4,6 km/h (1 Bft)
12.04.2014 17:00 14,4 C 55 % 1015,3 hPa 0,0 l/m 2,9 km/h (1 Bft) S 1,00 h 0,203 mm 0,9 UV-I 182 W/m 5,5 C 14,4 C 5,1 km/h (1 Bft)
12.04.2014 18:00 13,8 C 57 % 1015,1 hPa 0,0 l/m 0,8 km/h (0 Bft) S 0,97 h 0,127 mm 0,0 UV-I 65 W/m 5,4 C 13,8 C 1,9 km/h (1 Bft)
12.04.2014 19:00 12,9 C 63 % 1014,9 hPa 0,0 l/m 0,2 km/h (0 Bft) O-SO 0,00 h 0,051 mm 0,0 UV-I 26 W/m 6,0 C 12,9 C 1,0 km/h (0 Bft)
12.04.2014 20:00 11,0 C 76 % 1015,3 hPa 0,0 l/m 0,9 km/h (0 Bft) O 0,00 h 0,025 mm 0,0 UV-I 0 W/m 6,9 C 11,0 C 2,1 km/h (1 Bft)
12.04.2014 21:00 9,4 C 82 % 1015,4 hPa 0,0 l/m 2,2 km/h (1 Bft) O 0,00 h 0,000 mm 0,0 UV-I 0 W/m 6,5 C 9,4 C 3,8 km/h (1 Bft)
12.04.2014 22:00 8,4 C 86 % 1015,3 hPa 0,0 l/m 0,0 km/h (0 Bft) N 0,00 h 0,025 mm 0,0 UV-I 0 W/m 6,2 C 8,4 C 0,1 km/h (0 Bft)
12.04.2014 23:00 7,9 C 87 % 1015,1 hPa 0,0 l/m 0,0 km/h (0 Bft) N 0,00 h 0,000 mm 0,0 UV-I 0 W/m 6,0 C 7,9 C 0,0 km/h (0 Bft)
13.04.2014 00:00 7,9 C 89 % 1015,0 hPa 0,0 l/m 0,6 km/h (0 Bft) N 0,00 h 0,000 mm 0,0 UV-I 0 W/m 6,2 C 7,9 C 1,1 km/h (1 Bft)
13.04.2014 01:00 8,0 C 89 % 1014,8 hPa 0,0 l/m 1,4 km/h (1 Bft) N-NW 0,00 h 0,000 mm 0,0 UV-I 0 W/m 6,3 C 7,8 C 2,9 km/h (1 Bft)
13.04.2014 02:00 8,0 C 90 % 1014,5 hPa 0,0 l/m 0,5 km/h (0 Bft) S-SO 0,00 h 0,000 mm 0,0 UV-I 0 W/m 6,6 C 8,0 C 1,4 km/h (1 Bft)
13.04.2014 03:00 8,3 C 90 % 1014,5 hPa 0,0 l/m 2,9 km/h (1 Bft) N 0,00 h 0,000 mm 0,0 UV-I 0 W/m 6,7 C 8,2 C 4,3 km/h (1 Bft)
13.04.2014 04:00 8,1 C 91 % 1014,8 hPa 0,0 l/m 3,1 km/h (1 Bft) W-NW 0,00 h 0,000 mm 0,0 UV-I 0 W/m 6,8 C 8,1 C 5,0 km/h (1 Bft)
13.04.2014 05:00 8,3 C 90 % 1014,6 hPa 0,0 l/m 1,9 km/h (1 Bft) NW 0,00 h 0,000 mm 0,0 UV-I 0 W/m 6,8 C 8,4 C 3,6 km/h (1 Bft)
13.04.2014 06:00 8,2 C 90 % 1014,8 hPa 0,0 l/m 1,0 km/h (0 Bft) N 0,00 h 0,000 mm 0,0 UV-I 12 W/m 6,7 C 8,2 C 1,9 km/h (1 Bft)
13.04.2014 07:00 8,1 C 91 % 1016,0 hPa 0,0 l/m 3,4 km/h (1 Bft) N 0,45 h 0,000 mm 0,5 UV-I 55 W/m 6,7 C 8,1 C 5,3 km/h (1 Bft)
13.04.2014 08:00 9,5 C 85 % 1016,7 hPa 0,0 l/m 3,5 km/h (1 Bft) NW 1,00 h 0,025 mm 0,6 UV-I 146 W/m 7,1 C 9,5 C 5,8 km/h (2 Bft)
13.04.2014 09:00 10,2 C 76 % 1017,2 hPa 0,0 l/m 5,3 km/h (1 Bft) NW 1,00 h 0,076 mm 0,7 UV-I 199 W/m 6,2 C 9,9 C 8,5 km/h (2 Bft)
13.04.2014 10:00 11,8 C 62 % 1017,3 hPa 0,0 l/m 7,7 km/h (2 Bft) N-NW 1,00 h 0,127 mm 1,9 UV-I 551 W/m 4,6 C 10,7 C 12,0 km/h (2 Bft)
13.04.2014 11:00 13,2 C 52 % 1017,1 hPa 0,0 l/m 5,5 km/h (1 Bft) NW 1,00 h 0,356 mm 3,3 UV-I 494 W/m 3,5 C 12,8 C 9,1 km/h (2 Bft)
13.04.2014 12:00 14,3 C 50 % 1016,9 hPa 0,0 l/m 7,9 km/h (2 Bft) NW 1,00 h 0,305 mm 3,1 UV-I 507 W/m 3,9 C 13,2 C 11,9 km/h (2 Bft)
13.04.2014 13:00 15,0 C 45 % 1016,6 hPa 0,0 l/m 12,3 km/h (3 Bft) W-NW 1,00 h 0,305 mm 4,5 UV-I 788 W/m 3,0 C 12,3 C 18,8 km/h (3 Bft)
13.04.2014 14:00 15,6 C 42 % 1016,5 hPa 0,0 l/m 11,9 km/h (2 Bft) W-NW 1,00 h 0,483 mm 4,2 UV-I 790 W/m 2,7 C 13,1 C 18,3 km/h (3 Bft)
13.04.2014 15:00 15,4 C 42 % 1016,2 hPa 0,0 l/m 12,8 km/h (3 Bft) W 1,00 h 0,483 mm 2,7 UV-I 505 W/m 2,5 C 12,6 C 18,9 km/h (3 Bft)
13.04.2014 16:00 14,8 C 43 % 1016,1 hPa 0,0 l/m 12,2 km/h (2 Bft) W 1,00 h 0,356 mm 1,2 UV-I 268 W/m 2,2 C 12,0 C 18,8 km/h (3 Bft)
13.04.2014 17:00 14,3 C 45 % 1016,1 hPa 0,0 l/m 11,1 km/h (2 Bft) NW 1,00 h 0,229 mm 0,6 UV-I 139 W/m 2,6 C 11,9 C 16,4 km/h (3 Bft)
13.04.2014 18:00 13,6 C 46 % 1016,1 hPa 0,0 l/m 9,4 km/h (2 Bft) NW 0,62 h 0,152 mm 0,5 UV-I 63 W/m 2,2 C 12,0 C 13,6 km/h (3 Bft)
13.04.2014 19:00 12,9 C 49 % 1015,9 hPa 0,0 l/m 5,8 km/h (2 Bft) W-NW 0,00 h 0,102 mm 0,0 UV-I 18 W/m 2,5 C 12,5 C 8,8 km/h (2 Bft)
13.04.2014 20:00 12,1 C 54 % 1016,1 hPa 0,0 l/m 5,2 km/h (1 Bft) W-NW 0,00 h 0,051 mm 0,0 UV-I 0 W/m 3,1 C 12,0 C 8,0 km/h (2 Bft)
13.04.2014 21:00 11,5 C 58 % 1016,1 hPa 0,0 l/m 4,1 km/h (1 Bft) W 0,00 h 0,025 mm 0,0 UV-I 0 W/m 3,5 C 11,4 C 6,7 km/h (2 Bft)
13.04.2014 22:00 10,6 C 61 % 1015,9 hPa 0,0 l/m 3,4 km/h (1 Bft) W 0,00 h 0,051 mm 0,0 UV-I 0 W/m 3,4 C 10,5 C 5,5 km/h (1 Bft)
13.04.2014 23:00 9,3 C 65 % 1015,6 hPa 0,0 l/m 3,5 km/h (1 Bft) W 0,00 h 0,025 mm 0,0 UV-I 0 W/m 3,1 C 9,3 C 5,5 km/h (1 Bft)
Min-Datum _ 09.04.14 08.04.14 08.04.14 - 07.04.14 - - - - - 09.04.14 09.04.14 07.04.14
_ Min-Zeit 03:24 15:36 07:17 - 00:00 - - - - - 13:17 01:13 00:00
Minimum _ 2,7 C 39 % 1011,9 hPa - 0,0 km/h (0 Bft) - - - - - -1,0 C -4,6 C 0,0 km/h (0 Bft)
Max-Datum _ 07.04.14 07.04.14 09.04.14 09.04.14 09.04.14 - 07.04.14 13.04.14 10.04.14 10.04.14 08.04.14 07.04.14 09.04.14
_ Max-Zeit 14:47 07:15 11:21 12:49 01:13 - 14:28 14:00 13:32 13:33 10:33 14:47 01:12
Maximum _ 20,6 C 95 % 1023,4 hPa 0,2 l/m 35,4 km/h
W (5 Bft)
- 0,07 h 0,483 mm 5,9 UV-I 1137 W/m 10,9 C 20,6 C 49,9 km/h
W (6 Bft)
Durchschnitt _ 9,7 C 72 % 1017,9 hPa #1,0 l/m 5,8 km/h (1 Bft) W #74:41 h #15,946 mm 1,8 UV-I 233 W/m 4,5 C 8,6 C 9,1 km/h (2 Bft)